sensor_id;sensor_type;location;lat;lon;timestamp;P1;durP1;ratioP1;P2;durP2;ratioP2
12302;SDS011;6214;48.012;7.862;2023-02-15T00:01:50;105.72;;;26.60;;
12302;SDS011;6214;48.012;7.862;2023-02-15T00:04:19;75.00;;;25.40;;
12302;SDS011;6214;48.012;7.862;2023-02-15T00:06:48;100.65;;;27.33;;
12302;SDS011;6214;48.012;7.862;2023-02-15T00:09:16;106.05;;;25.73;;
12302;SDS011;6214;48.012;7.862;2023-02-15T00:11:43;135.50;;;27.63;;
12302;SDS011;6214;48.012;7.862;2023-02-15T00:14:19;125.10;;;25.65;;
12302;SDS011;6214;48.012;7.862;2023-02-15T00:16:48;134.98;;;27.60;;
12302;SDS011;6214;48.012;7.862;2023-02-15T00:19:17;125.60;;;25.55;;
12302;SDS011;6214;48.012;7.862;2023-02-15T00:21:46;77.07;;;23.97;;
12302;SDS011;6214;48.012;7.862;2023-02-15T00:24:15;118.25;;;26.83;;
12302;SDS011;6214;48.012;7.862;2023-02-15T00:26:43;121.25;;;26.27;;
12302;SDS011;6214;48.012;7.862;2023-02-15T00:29:12;147.82;;;26.20;;
12302;SDS011;6214;48.012;7.862;2023-02-15T00:31:41;147.38;;;26.98;;
12302;SDS011;6214;48.012;7.862;2023-02-15T00:36:38;80.85;;;22.60;;
12302;SDS011;6214;48.012;7.862;2023-02-15T00:39:05;80.93;;;22.27;;
12302;SDS011;6214;48.012;7.862;2023-02-15T00:41:33;106.93;;;22.77;;
12302;SDS011;6214;48.012;7.862;2023-02-15T00:44:00;91.38;;;22.27;;
12302;SDS011;6214;48.012;7.862;2023-02-15T00:46:27;97.85;;;22.83;;
12302;SDS011;6214;48.012;7.862;2023-02-15T00:48:55;83.60;;;21.75;;
12302;SDS011;6214;48.012;7.862;2023-02-15T00:51:22;85.53;;;23.13;;
12302;SDS011;6214;48.012;7.862;2023-02-15T00:53:49;69.47;;;22.00;;
12302;SDS011;6214;48.012;7.862;2023-02-15T00:56:16;75.82;;;22.23;;
12302;SDS011;6214;48.012;7.862;2023-02-15T00:58:44;70.95;;;22.35;;
12302;SDS011;6214;48.012;7.862;2023-02-15T01:01:12;124.20;;;26.73;;
12302;SDS011;6214;48.012;7.862;2023-02-15T01:03:41;105.55;;;23.88;;
12302;SDS011;6214;48.012;7.862;2023-02-15T01:06:08;121.85;;;26.63;;
12302;SDS011;6214;48.012;7.862;2023-02-15T01:08:36;107.38;;;25.02;;
12302;SDS011;6214;48.012;7.862;2023-02-15T01:11:07;68.43;;;22.85;;
12302;SDS011;6214;48.012;7.862;2023-02-15T01:13:36;107.75;;;25.67;;
12302;SDS011;6214;48.012;7.862;2023-02-15T01:16:04;107.55;;;24.58;;
12302;SDS011;6214;48.012;7.862;2023-02-15T01:18:31;98.38;;;24.35;;
12302;SDS011;6214;48.012;7.862;2023-02-15T01:20:59;84.05;;;23.15;;
12302;SDS011;6214;48.012;7.862;2023-02-15T01:23:26;86.28;;;23.58;;
12302;SDS011;6214;48.012;7.862;2023-02-15T01:25:52;88.13;;;22.90;;
12302;SDS011;6214;48.012;7.862;2023-02-15T01:28:19;96.10;;;23.93;;
12302;SDS011;6214;48.012;7.862;2023-02-15T01:30:46;73.60;;;22.60;;
12302;SDS011;6214;48.012;7.862;2023-02-15T01:33:13;85.93;;;23.60;;
12302;SDS011;6214;48.012;7.862;2023-02-15T01:35:44;60.67;;;20.65;;
12302;SDS011;6214;48.012;7.862;2023-02-15T01:38:13;53.53;;;21.33;;
12302;SDS011;6214;48.012;7.862;2023-02-15T01:40:40;55.13;;;20.77;;
12302;SDS011;6214;48.012;7.862;2023-02-15T01:43:10;67.82;;;20.10;;
12302;SDS011;6214;48.012;7.862;2023-02-15T01:45:38;53.38;;;20.08;;
12302;SDS011;6214;48.012;7.862;2023-02-15T01:48:12;42.47;;;19.27;;
12302;SDS011;6214;48.012;7.862;2023-02-15T01:50:50;71.78;;;20.63;;
12302;SDS011;6214;48.012;7.862;2023-02-15T01:53:55;62.90;;;20.02;;
12302;SDS011;6214;48.012;7.862;2023-02-15T01:56:18;66.32;;;20.98;;
12302;SDS011;6214;48.012;7.862;2023-02-15T01:58:54;65.07;;;21.08;;
12302;SDS011;6214;48.012;7.862;2023-02-15T02:01:25;75.80;;;22.00;;
12302;SDS011;6214;48.012;7.862;2023-02-15T02:06:33;67.78;;;20.65;;
12302;SDS011;6214;48.012;7.862;2023-02-15T02:09:02;83.65;;;22.15;;
12302;SDS011;6214;48.012;7.862;2023-02-15T02:11:29;84.72;;;23.02;;
12302;SDS011;6214;48.012;7.862;2023-02-15T02:13:56;84.38;;;22.65;;
12302;SDS011;6214;48.012;7.862;2023-02-15T02:16:24;107.03;;;24.58;;
12302;SDS011;6214;48.012;7.862;2023-02-15T02:36:41;97.55;;;22.48;;
12302;SDS011;6214;48.012;7.862;2023-02-15T02:39:35;65.10;;;19.38;;
12302;SDS011;6214;48.012;7.862;2023-02-15T02:45:08;56.17;;;20.55;;
12302;SDS011;6214;48.012;7.862;2023-02-15T02:47:47;89.97;;;22.40;;
12302;SDS011;6214;48.012;7.862;2023-02-15T02:50:27;82.30;;;22.67;;
12302;SDS011;6214;48.012;7.862;2023-02-15T02:52:56;84.38;;;21.70;;
12302;SDS011;6214;48.012;7.862;2023-02-15T03:00:46;81.47;;;21.70;;
12302;SDS011;6214;48.012;7.862;2023-02-15T03:06:01;67.60;;;19.52;;
12302;SDS011;6214;48.012;7.862;2023-02-15T03:08:41;54.30;;;18.92;;
12302;SDS011;6214;48.012;7.862;2023-02-15T03:11:11;76.43;;;21.00;;
12302;SDS011;6214;48.012;7.862;2023-02-15T03:13:38;61.22;;;20.10;;
12302;SDS011;6214;48.012;7.862;2023-02-15T03:16:07;70.40;;;19.90;;
12302;SDS011;6214;48.012;7.862;2023-02-15T03:19:02;87.07;;;21.70;;
12302;SDS011;6214;48.012;7.862;2023-02-15T03:21:37;71.97;;;19.58;;
12302;SDS011;6214;48.012;7.862;2023-02-15T03:24:12;57.63;;;18.47;;
12302;SDS011;6214;48.012;7.862;2023-02-15T03:26:42;66.78;;;18.30;;
12302;SDS011;6214;48.012;7.862;2023-02-15T03:29:12;58.40;;;19.50;;
12302;SDS011;6214;48.012;7.862;2023-02-15T03:31:42;57.80;;;19.23;;
12302;SDS011;6214;48.012;7.862;2023-02-15T03:34:12;49.25;;;18.38;;
12302;SDS011;6214;48.012;7.862;2023-02-15T03:36:49;41.30;;;18.20;;
12302;SDS011;6214;48.012;7.862;2023-02-15T03:39:20;63.72;;;19.80;;
12302;SDS011;6214;48.012;7.862;2023-02-15T03:45:13;46.50;;;20.23;;
12302;SDS011;6214;48.012;7.862;2023-02-15T03:47:45;46.30;;;19.25;;
12302;SDS011;6214;48.012;7.862;2023-02-15T03:50:18;55.95;;;19.73;;
12302;SDS011;6214;48.012;7.862;2023-02-15T03:53:14;47.17;;;19.85;;
12302;SDS011;6214;48.012;7.862;2023-02-15T03:55:50;49.45;;;19.70;;
12302;SDS011;6214;48.012;7.862;2023-02-15T03:58:21;53.25;;;19.83;;
12302;SDS011;6214;48.012;7.862;2023-02-15T04:01:11;42.90;;;19.80;;
12302;SDS011;6214;48.012;7.862;2023-02-15T04:04:13;39.87;;;19.73;;
12302;SDS011;6214;48.012;7.862;2023-02-15T04:06:45;40.85;;;19.23;;
12302;SDS011;6214;48.012;7.862;2023-02-15T04:09:12;37.05;;;19.00;;
12302;SDS011;6214;48.012;7.862;2023-02-15T04:12:03;32.90;;;19.50;;
12302;SDS011;6214;48.012;7.862;2023-02-15T04:14:30;47.58;;;21.67;;
12302;SDS011;6214;48.012;7.862;2023-02-15T04:17:15;44.83;;;19.38;;
12302;SDS011;6214;48.012;7.862;2023-02-15T04:19:42;48.38;;;19.90;;
12302;SDS011;6214;48.012;7.862;2023-02-15T04:22:27;51.00;;;21.05;;
12302;SDS011;6214;48.012;7.862;2023-02-15T04:25:13;44.47;;;19.70;;
12302;SDS011;6214;48.012;7.862;2023-02-15T04:27:44;33.58;;;18.20;;
12302;SDS011;6214;48.012;7.862;2023-02-15T04:30:16;40.13;;;17.83;;
12302;SDS011;6214;48.012;7.862;2023-02-15T04:32:46;38.90;;;18.10;;
12302;SDS011;6214;48.012;7.862;2023-02-15T04:35:14;43.28;;;18.10;;
12302;SDS011;6214;48.012;7.862;2023-02-15T04:37:41;32.92;;;17.13;;
12302;SDS011;6214;48.012;7.862;2023-02-15T04:40:10;41.42;;;19.40;;
12302;SDS011;6214;48.012;7.862;2023-02-15T04:42:39;50.05;;;18.73;;
12302;SDS011;6214;48.012;7.862;2023-02-15T04:45:06;47.88;;;18.60;;
12302;SDS011;6214;48.012;7.862;2023-02-15T04:47:34;33.95;;;18.00;;
12302;SDS011;6214;48.012;7.862;2023-02-15T04:50:01;37.63;;;18.27;;
12302;SDS011;6214;48.012;7.862;2023-02-15T04:52:27;36.38;;;17.35;;
12302;SDS011;6214;48.012;7.862;2023-02-15T04:54:54;41.90;;;18.00;;
12302;SDS011;6214;48.012;7.862;2023-02-15T04:57:21;41.53;;;18.20;;
12302;SDS011;6214;48.012;7.862;2023-02-15T04:59:48;34.65;;;17.60;;
12302;SDS011;6214;48.012;7.862;2023-02-15T05:02:15;43.08;;;17.80;;
12302;SDS011;6214;48.012;7.862;2023-02-15T05:04:42;42.15;;;18.92;;
12302;SDS011;6214;48.012;7.862;2023-02-15T05:07:09;38.43;;;16.97;;
12302;SDS011;6214;48.012;7.862;2023-02-15T05:09:36;33.50;;;17.60;;
12302;SDS011;6214;48.012;7.862;2023-02-15T05:12:03;35.72;;;17.58;;
12302;SDS011;6214;48.012;7.862;2023-02-15T05:14:30;31.77;;;17.90;;
12302;SDS011;6214;48.012;7.862;2023-02-15T05:16:57;32.40;;;17.10;;
12302;SDS011;6214;48.012;7.862;2023-02-15T05:19:27;38.33;;;17.43;;
12302;SDS011;6214;48.012;7.862;2023-02-15T05:21:54;46.17;;;17.90;;
12302;SDS011;6214;48.012;7.862;2023-02-15T05:24:21;39.28;;;17.33;;
12302;SDS011;6214;48.012;7.862;2023-02-15T05:27:07;34.45;;;16.80;;
12302;SDS011;6214;48.012;7.862;2023-02-15T05:29:56;33.27;;;17.40;;
12302;SDS011;6214;48.012;7.862;2023-02-15T05:32:23;34.72;;;16.92;;
12302;SDS011;6214;48.012;7.862;2023-02-15T05:34:50;35.80;;;17.10;;
12302;SDS011;6214;48.012;7.862;2023-02-15T05:37:17;33.03;;;17.00;;
12302;SDS011;6214;48.012;7.862;2023-02-15T05:39:44;38.30;;;17.08;;
12302;SDS011;6214;48.012;7.862;2023-02-15T05:42:11;31.35;;;16.40;;
12302;SDS011;6214;48.012;7.862;2023-02-15T05:44:38;30.03;;;16.43;;
12302;SDS011;6214;48.012;7.862;2023-02-15T05:47:05;47.55;;;18.10;;
12302;SDS011;6214;48.012;7.862;2023-02-15T05:49:33;34.85;;;17.17;;
12302;SDS011;6214;48.012;7.862;2023-02-15T05:52:01;49.05;;;19.00;;
12302;SDS011;6214;48.012;7.862;2023-02-15T05:54:28;44.65;;;17.77;;
12302;SDS011;6214;48.012;7.862;2023-02-15T05:56:55;34.28;;;18.20;;
12302;SDS011;6214;48.012;7.862;2023-02-15T05:59:22;34.53;;;17.53;;
12302;SDS011;6214;48.012;7.862;2023-02-15T06:01:49;38.53;;;18.60;;
12302;SDS011;6214;48.012;7.862;2023-02-15T06:04:16;37.53;;;18.30;;
12302;SDS011;6214;48.012;7.862;2023-02-15T06:06:43;30.40;;;17.00;;
12302;SDS011;6214;48.012;7.862;2023-02-15T06:09:11;29.60;;;16.33;;
12302;SDS011;6214;48.012;7.862;2023-02-15T06:11:39;34.80;;;17.67;;
12302;SDS011;6214;48.012;7.862;2023-02-15T06:14:05;33.28;;;17.60;;
12302;SDS011;6214;48.012;7.862;2023-02-15T06:16:32;35.00;;;17.92;;
12302;SDS011;6214;48.012;7.862;2023-02-15T06:18:59;35.05;;;17.70;;
12302;SDS011;6214;48.012;7.862;2023-02-15T06:21:28;30.73;;;17.20;;
12302;SDS011;6214;48.012;7.862;2023-02-15T06:23:55;31.43;;;17.70;;
12302;SDS011;6214;48.012;7.862;2023-02-15T06:26:23;36.38;;;18.98;;
12302;SDS011;6214;48.012;7.862;2023-02-15T06:28:50;32.95;;;18.30;;
12302;SDS011;6214;48.012;7.862;2023-02-15T06:31:16;31.20;;;17.13;;
12302;SDS011;6214;48.012;7.862;2023-02-15T06:33:44;33.35;;;17.02;;
12302;SDS011;6214;48.012;7.862;2023-02-15T06:36:10;29.83;;;16.42;;
12302;SDS011;6214;48.012;7.862;2023-02-15T06:38:38;29.58;;;16.60;;
12302;SDS011;6214;48.012;7.862;2023-02-15T06:41:05;29.73;;;17.35;;
12302;SDS011;6214;48.012;7.862;2023-02-15T06:43:32;30.65;;;17.25;;
12302;SDS011;6214;48.012;7.862;2023-02-15T06:46:00;31.20;;;18.87;;
12302;SDS011;6214;48.012;7.862;2023-02-15T06:48:27;29.25;;;17.23;;
12302;SDS011;6214;48.012;7.862;2023-02-15T06:50:54;28.40;;;16.00;;
12302;SDS011;6214;48.012;7.862;2023-02-15T06:53:21;27.55;;;15.60;;
12302;SDS011;6214;48.012;7.862;2023-02-15T06:55:48;28.40;;;16.35;;
12302;SDS011;6214;48.012;7.862;2023-02-15T06:58:15;28.25;;;17.23;;
12302;SDS011;6214;48.012;7.862;2023-02-15T07:00:42;27.05;;;15.45;;
12302;SDS011;6214;48.012;7.862;2023-02-15T07:03:09;29.43;;;16.27;;
12302;SDS011;6214;48.012;7.862;2023-02-15T07:05:40;28.40;;;16.10;;
12302;SDS011;6214;48.012;7.862;2023-02-15T07:08:07;28.73;;;16.92;;
12302;SDS011;6214;48.012;7.862;2023-02-15T07:10:34;30.45;;;17.13;;
12302;SDS011;6214;48.012;7.862;2023-02-15T07:13:01;31.20;;;16.48;;
12302;SDS011;6214;48.012;7.862;2023-02-15T07:15:28;29.02;;;16.25;;
12302;SDS011;6214;48.012;7.862;2023-02-15T07:17:56;35.70;;;17.25;;
12302;SDS011;6214;48.012;7.862;2023-02-15T07:20:24;28.85;;;17.33;;
12302;SDS011;6214;48.012;7.862;2023-02-15T07:22:51;31.27;;;17.70;;
12302;SDS011;6214;48.012;7.862;2023-02-15T07:25:18;36.05;;;18.40;;
12302;SDS011;6214;48.012;7.862;2023-02-15T07:27:45;33.63;;;17.90;;
12302;SDS011;6214;48.012;7.862;2023-02-15T07:30:13;28.40;;;17.00;;
12302;SDS011;6214;48.012;7.862;2023-02-15T07:32:42;33.80;;;18.00;;
12302;SDS011;6214;48.012;7.862;2023-02-15T07:35:31;38.38;;;18.23;;
12302;SDS011;6214;48.012;7.862;2023-02-15T07:37:58;38.47;;;17.42;;
12302;SDS011;6214;48.012;7.862;2023-02-15T07:40:26;31.38;;;17.60;;
12302;SDS011;6214;48.012;7.862;2023-02-15T07:42:53;33.40;;;17.83;;
12302;SDS011;6214;48.012;7.862;2023-02-15T07:45:21;30.65;;;16.90;;
12302;SDS011;6214;48.012;7.862;2023-02-15T07:47:48;34.93;;;18.10;;
12302;SDS011;6214;48.012;7.862;2023-02-15T07:50:15;37.40;;;18.83;;
12302;SDS011;6214;48.012;7.862;2023-02-15T07:52:42;33.55;;;18.35;;
12302;SDS011;6214;48.012;7.862;2023-02-15T07:55:09;31.90;;;18.13;;
12302;SDS011;6214;48.012;7.862;2023-02-15T07:57:48;30.23;;;17.83;;
12302;SDS011;6214;48.012;7.862;2023-02-15T08:00:17;29.35;;;17.55;;
12302;SDS011;6214;48.012;7.862;2023-02-15T08:02:52;28.42;;;16.95;;
12302;SDS011;6214;48.012;7.862;2023-02-15T08:05:39;36.03;;;17.90;;
12302;SDS011;6214;48.012;7.862;2023-02-15T08:08:08;36.72;;;19.02;;
12302;SDS011;6214;48.012;7.862;2023-02-15T08:11:06;31.02;;;18.23;;
12302;SDS011;6214;48.012;7.862;2023-02-15T08:16:26;29.70;;;17.58;;
12302;SDS011;6214;48.012;7.862;2023-02-15T08:18:53;30.00;;;17.90;;
12302;SDS011;6214;48.012;7.862;2023-02-15T08:21:21;32.83;;;18.70;;
12302;SDS011;6214;48.012;7.862;2023-02-15T08:23:50;29.00;;;16.45;;
12302;SDS011;6214;48.012;7.862;2023-02-15T08:26:18;31.25;;;18.70;;
12302;SDS011;6214;48.012;7.862;2023-02-15T08:28:45;29.67;;;17.88;;
12302;SDS011;6214;48.012;7.862;2023-02-15T08:31:12;32.20;;;17.40;;
12302;SDS011;6214;48.012;7.862;2023-02-15T08:33:41;32.08;;;17.65;;
12302;SDS011;6214;48.012;7.862;2023-02-15T08:36:11;29.07;;;17.43;;
12302;SDS011;6214;48.012;7.862;2023-02-15T08:38:40;29.65;;;17.40;;
12302;SDS011;6214;48.012;7.862;2023-02-15T08:41:09;33.92;;;19.45;;
12302;SDS011;6214;48.012;7.862;2023-02-15T08:43:42;33.08;;;20.02;;
12302;SDS011;6214;48.012;7.862;2023-02-15T08:46:10;32.35;;;19.13;;
12302;SDS011;6214;48.012;7.862;2023-02-15T08:48:38;31.50;;;19.50;;
12302;SDS011;6214;48.012;7.862;2023-02-15T08:51:06;31.17;;;18.23;;
12302;SDS011;6214;48.012;7.862;2023-02-15T08:53:34;30.05;;;18.42;;
12302;SDS011;6214;48.012;7.862;2023-02-15T08:56:01;38.87;;;25.07;;
12302;SDS011;6214;48.012;7.862;2023-02-15T08:58:29;32.50;;;19.60;;
12302;SDS011;6214;48.012;7.862;2023-02-15T09:00:57;30.70;;;18.55;;
12302;SDS011;6214;48.012;7.862;2023-02-15T09:03:25;32.70;;;18.77;;
12302;SDS011;6214;48.012;7.862;2023-02-15T09:05:56;32.30;;;18.42;;
12302;SDS011;6214;48.012;7.862;2023-02-15T09:08:24;30.40;;;17.63;;
12302;SDS011;6214;48.012;7.862;2023-02-15T09:10:52;30.40;;;18.40;;
12302;SDS011;6214;48.012;7.862;2023-02-15T09:13:19;31.05;;;19.42;;
12302;SDS011;6214;48.012;7.862;2023-02-15T09:15:46;31.35;;;18.45;;
12302;SDS011;6214;48.012;7.862;2023-02-15T09:18:13;30.88;;;19.63;;
12302;SDS011;6214;48.012;7.862;2023-02-15T09:20:43;30.30;;;18.35;;
12302;SDS011;6214;48.012;7.862;2023-02-15T09:23:11;33.25;;;19.55;;
12302;SDS011;6214;48.012;7.862;2023-02-15T09:25:52;31.27;;;19.23;;
12302;SDS011;6214;48.012;7.862;2023-02-15T09:28:19;32.20;;;20.20;;
12302;SDS011;6214;48.012;7.862;2023-02-15T09:30:46;32.50;;;20.20;;
12302;SDS011;6214;48.012;7.862;2023-02-15T09:33:13;37.25;;;20.40;;
12302;SDS011;6214;48.012;7.862;2023-02-15T09:35:40;35.75;;;20.92;;
12302;SDS011;6214;48.012;7.862;2023-02-15T09:38:07;32.50;;;20.20;;
12302;SDS011;6214;48.012;7.862;2023-02-15T09:40:37;34.67;;;20.90;;
12302;SDS011;6214;48.012;7.862;2023-02-15T09:43:16;33.00;;;20.75;;
12302;SDS011;6214;48.012;7.862;2023-02-15T09:46:09;34.80;;;20.63;;
12302;SDS011;6214;48.012;7.862;2023-02-15T09:48:49;32.87;;;20.30;;
12302;SDS011;6214;48.012;7.862;2023-02-15T09:51:44;32.33;;;20.00;;
12302;SDS011;6214;48.012;7.862;2023-02-15T09:54:18;32.65;;;20.45;;
12302;SDS011;6214;48.012;7.862;2023-02-15T09:59:24;31.70;;;20.17;;
12302;SDS011;6214;48.012;7.862;2023-02-15T10:15:27;33.58;;;20.35;;
12302;SDS011;6214;48.012;7.862;2023-02-15T10:18:02;34.40;;;20.60;;
12302;SDS011;6214;48.012;7.862;2023-02-15T10:25:49;33.22;;;20.40;;
12302;SDS011;6214;48.012;7.862;2023-02-15T10:31:31;32.83;;;21.50;;
12302;SDS011;6214;48.012;7.862;2023-02-15T10:51:05;31.00;;;20.30;;
12302;SDS011;6214;48.012;7.862;2023-02-15T10:53:45;32.60;;;21.05;;
12302;SDS011;6214;48.012;7.862;2023-02-15T11:07:48;31.13;;;20.20;;
12302;SDS011;6214;48.012;7.862;2023-02-15T11:10:24;31.70;;;20.60;;
12302;SDS011;6214;48.012;7.862;2023-02-15T11:13:04;30.25;;;19.35;;
12302;SDS011;6214;48.012;7.862;2023-02-15T11:15:43;30.67;;;20.10;;
12302;SDS011;6214;48.012;7.862;2023-02-15T11:18:25;32.50;;;21.57;;
12302;SDS011;6214;48.012;7.862;2023-02-15T11:23:40;31.95;;;20.92;;
12302;SDS011;6214;48.012;7.862;2023-02-15T11:28:57;30.38;;;19.08;;
12302;SDS011;6214;48.012;7.862;2023-02-15T11:31:50;29.98;;;19.15;;
12302;SDS011;6214;48.012;7.862;2023-02-15T11:34:29;29.55;;;18.77;;
12302;SDS011;6214;48.012;7.862;2023-02-15T11:37:08;29.95;;;19.70;;
12302;SDS011;6214;48.012;7.862;2023-02-15T11:39:39;28.77;;;18.70;;
12302;SDS011;6214;48.012;7.862;2023-02-15T11:42:14;29.33;;;18.27;;
12302;SDS011;6214;48.012;7.862;2023-02-15T11:44:47;29.17;;;18.35;;
12302;SDS011;6214;48.012;7.862;2023-02-15T11:47:18;29.58;;;18.88;;
12302;SDS011;6214;48.012;7.862;2023-02-15T11:49:45;31.40;;;18.70;;
12302;SDS011;6214;48.012;7.862;2023-02-15T11:52:13;28.42;;;17.80;;
12302;SDS011;6214;48.012;7.862;2023-02-15T11:54:43;29.40;;;19.10;;
12302;SDS011;6214;48.012;7.862;2023-02-15T11:57:22;28.52;;;18.48;;
12302;SDS011;6214;48.012;7.862;2023-02-15T11:59:51;28.45;;;18.35;;
12302;SDS011;6214;48.012;7.862;2023-02-15T12:02:22;29.25;;;18.48;;
12302;SDS011;6214;48.012;7.862;2023-02-15T12:05:00;29.42;;;18.50;;
12302;SDS011;6214;48.012;7.862;2023-02-15T12:07:44;28.98;;;18.45;;
12302;SDS011;6214;48.012;7.862;2023-02-15T12:12:48;28.90;;;18.50;;
12302;SDS011;6214;48.012;7.862;2023-02-15T12:15:34;28.95;;;18.88;;
12302;SDS011;6214;48.012;7.862;2023-02-15T12:18:02;28.67;;;18.38;;
12302;SDS011;6214;48.012;7.862;2023-02-15T12:20:33;30.00;;;18.80;;
12302;SDS011;6214;48.012;7.862;2023-02-15T12:23:03;29.85;;;18.55;;
12302;SDS011;6214;48.012;7.862;2023-02-15T12:25:36;31.38;;;19.23;;
12302;SDS011;6214;48.012;7.862;2023-02-15T12:31:25;30.15;;;18.35;;
12302;SDS011;6214;48.012;7.862;2023-02-15T12:33:54;31.02;;;18.75;;
12302;SDS011;6214;48.012;7.862;2023-02-15T12:36:25;30.08;;;19.50;;
12302;SDS011;6214;48.012;7.862;2023-02-15T12:39:03;29.00;;;17.80;;
12302;SDS011;6214;48.012;7.862;2023-02-15T12:41:45;30.80;;;19.40;;
12302;SDS011;6214;48.012;7.862;2023-02-15T12:44:33;29.95;;;17.63;;
12302;SDS011;6214;48.012;7.862;2023-02-15T12:47:03;30.43;;;18.50;;
12302;SDS011;6214;48.012;7.862;2023-02-15T12:49:35;29.27;;;17.92;;
12302;SDS011;6214;48.012;7.862;2023-02-15T12:52:04;29.13;;;18.75;;
12302;SDS011;6214;48.012;7.862;2023-02-15T12:54:44;27.73;;;17.80;;
12302;SDS011;6214;48.012;7.862;2023-02-15T12:57:21;29.08;;;18.50;;
12302;SDS011;6214;48.012;7.862;2023-02-15T12:59:55;27.58;;;17.00;;
12302;SDS011;6214;48.012;7.862;2023-02-15T13:02:40;27.70;;;17.20;;
12302;SDS011;6214;48.012;7.862;2023-02-15T13:08:11;26.65;;;15.75;;
12302;SDS011;6214;48.012;7.862;2023-02-15T13:13:36;26.50;;;16.23;;
12302;SDS011;6214;48.012;7.862;2023-02-15T13:16:28;27.03;;;15.20;;
12302;SDS011;6214;48.012;7.862;2023-02-15T13:18:58;28.05;;;16.52;;
12302;SDS011;6214;48.012;7.862;2023-02-15T13:21:31;27.45;;;16.55;;
12302;SDS011;6214;48.012;7.862;2023-02-15T13:24:05;26.52;;;16.17;;
12302;SDS011;6214;48.012;7.862;2023-02-15T13:26:38;25.88;;;15.15;;
12302;SDS011;6214;48.012;7.862;2023-02-15T13:29:33;26.90;;;16.30;;
12302;SDS011;6214;48.012;7.862;2023-02-15T13:32:25;27.50;;;16.03;;
12302;SDS011;6214;48.012;7.862;2023-02-15T13:35:10;26.70;;;15.40;;
12302;SDS011;6214;48.012;7.862;2023-02-15T13:43:01;25.33;;;15.23;;
12302;SDS011;6214;48.012;7.862;2023-02-15T13:46:10;27.73;;;16.60;;
12302;SDS011;6214;48.012;7.862;2023-02-15T13:48:45;26.88;;;16.13;;
12302;SDS011;6214;48.012;7.862;2023-02-15T13:51:41;27.13;;;16.02;;
12302;SDS011;6214;48.012;7.862;2023-02-15T13:54:36;27.60;;;16.77;;
12302;SDS011;6214;48.012;7.862;2023-02-15T14:21:31;27.50;;;17.33;;
12302;SDS011;6214;48.012;7.862;2023-02-15T14:32:28;28.95;;;17.15;;
12302;SDS011;6214;48.012;7.862;2023-02-15T14:35:03;28.23;;;17.40;;
12302;SDS011;6214;48.012;7.862;2023-02-15T14:37:42;27.40;;;16.70;;
12302;SDS011;6214;48.012;7.862;2023-02-15T14:47:07;28.70;;;16.90;;
12302;SDS011;6214;48.012;7.862;2023-02-15T14:49:15;27.87;;;17.73;;
12302;SDS011;6214;48.012;7.862;2023-02-15T14:57:20;29.23;;;16.17;;
12302;SDS011;6214;48.012;7.862;2023-02-15T14:59:38;27.63;;;17.43;;
12302;SDS011;6214;48.012;7.862;2023-02-15T15:02:13;28.30;;;17.10;;
12302;SDS011;6214;48.012;7.862;2023-02-15T15:05:06;31.60;;;17.07;;
12302;SDS011;6214;48.012;7.862;2023-02-15T15:15:33;25.85;;;16.50;;
12302;SDS011;6214;48.012;7.862;2023-02-15T15:18:09;26.20;;;17.02;;
12302;SDS011;6214;48.012;7.862;2023-02-15T15:20:56;25.53;;;15.30;;
12302;SDS011;6214;48.012;7.862;2023-02-15T15:23:40;28.67;;;16.60;;
12302;SDS011;6214;48.012;7.862;2023-02-15T15:26:25;26.08;;;16.42;;
12302;SDS011;6214;48.012;7.862;2023-02-15T15:28:55;28.73;;;17.58;;
12302;SDS011;6214;48.012;7.862;2023-02-15T15:31:30;27.07;;;16.50;;
12302;SDS011;6214;48.012;7.862;2023-02-15T15:34:18;27.60;;;16.52;;
12302;SDS011;6214;48.012;7.862;2023-02-15T15:39:47;27.35;;;17.13;;
12302;SDS011;6214;48.012;7.862;2023-02-15T15:42:49;27.17;;;18.50;;
12302;SDS011;6214;48.012;7.862;2023-02-15T15:45:48;25.83;;;17.05;;
12302;SDS011;6214;48.012;7.862;2023-02-15T15:48:33;27.23;;;17.63;;
12302;SDS011;6214;48.012;7.862;2023-02-15T15:51:06;28.83;;;19.10;;
12302;SDS011;6214;48.012;7.862;2023-02-15T15:53:45;28.45;;;18.90;;
12302;SDS011;6214;48.012;7.862;2023-02-15T15:56:18;28.93;;;19.17;;
12302;SDS011;6214;48.012;7.862;2023-02-15T15:58:50;28.10;;;18.10;;
12302;SDS011;6214;48.012;7.862;2023-02-15T16:01:24;27.85;;;18.00;;
12302;SDS011;6214;48.012;7.862;2023-02-15T16:04:01;28.02;;;17.02;;
12302;SDS011;6214;48.012;7.862;2023-02-15T16:08:57;26.90;;;16.15;;
12302;SDS011;6214;48.012;7.862;2023-02-15T16:11:37;27.00;;;17.73;;
12302;SDS011;6214;48.012;7.862;2023-02-15T16:14:11;27.60;;;17.20;;
12302;SDS011;6214;48.012;7.862;2023-02-15T16:16:51;27.45;;;17.88;;
12302;SDS011;6214;48.012;7.862;2023-02-15T16:19:22;28.27;;;18.60;;
12302;SDS011;6214;48.012;7.862;2023-02-15T16:21:52;27.95;;;18.73;;
12302;SDS011;6214;48.012;7.862;2023-02-15T16:29:41;28.02;;;18.70;;
12302;SDS011;6214;48.012;7.862;2023-02-15T16:32:21;30.17;;;19.23;;
12302;SDS011;6214;48.012;7.862;2023-02-15T16:34:57;29.55;;;19.50;;
12302;SDS011;6214;48.012;7.862;2023-02-15T16:37:27;29.48;;;19.58;;
12302;SDS011;6214;48.012;7.862;2023-02-15T16:39:58;30.58;;;19.80;;
12302;SDS011;6214;48.012;7.862;2023-02-15T16:42:25;30.90;;;20.20;;
12302;SDS011;6214;48.012;7.862;2023-02-15T16:45:05;29.80;;;20.08;;
12302;SDS011;6214;48.012;7.862;2023-02-15T16:47:38;32.55;;;20.98;;
12302;SDS011;6214;48.012;7.862;2023-02-15T16:50:16;32.22;;;20.60;;
12302;SDS011;6214;48.012;7.862;2023-02-15T16:52:46;32.78;;;21.75;;
12302;SDS011;6214;48.012;7.862;2023-02-15T16:55:23;31.63;;;20.15;;
12302;SDS011;6214;48.012;7.862;2023-02-15T16:58:01;32.83;;;21.90;;
12302;SDS011;6214;48.012;7.862;2023-02-15T17:00:31;31.60;;;20.55;;
12302;SDS011;6214;48.012;7.862;2023-02-15T17:03:06;32.55;;;21.27;;
12302;SDS011;6214;48.012;7.862;2023-02-15T17:05:48;32.30;;;21.60;;
12302;SDS011;6214;48.012;7.862;2023-02-15T17:08:18;31.08;;;21.10;;
12302;SDS011;6214;48.012;7.862;2023-02-15T17:13:26;32.38;;;21.20;;
12302;SDS011;6214;48.012;7.862;2023-02-15T17:18:49;32.13;;;22.17;;
12302;SDS011;6214;48.012;7.862;2023-02-15T17:21:17;33.40;;;21.50;;
12302;SDS011;6214;48.012;7.862;2023-02-15T17:23:51;30.35;;;19.83;;
12302;SDS011;6214;48.012;7.862;2023-02-15T17:26:24;29.23;;;19.40;;
12302;SDS011;6214;48.012;7.862;2023-02-15T17:28:55;31.50;;;20.40;;
12302;SDS011;6214;48.012;7.862;2023-02-15T17:31:29;30.30;;;20.05;;
12302;SDS011;6214;48.012;7.862;2023-02-15T17:33:59;33.25;;;22.45;;
12302;SDS011;6214;48.012;7.862;2023-02-15T17:36:28;35.88;;;24.13;;
12302;SDS011;6214;48.012;7.862;2023-02-15T17:41:30;31.05;;;21.27;;
12302;SDS011;6214;48.012;7.862;2023-02-15T17:44:01;30.20;;;20.70;;
12302;SDS011;6214;48.012;7.862;2023-02-15T17:46:34;30.20;;;19.95;;
12302;SDS011;6214;48.012;7.862;2023-02-15T17:49:03;31.25;;;21.35;;
12302;SDS011;6214;48.012;7.862;2023-02-15T17:51:30;33.87;;;23.60;;
12302;SDS011;6214;48.012;7.862;2023-02-15T17:54:01;37.67;;;25.80;;
12302;SDS011;6214;48.012;7.862;2023-02-15T17:56:47;49.35;;;35.40;;
12302;SDS011;6214;48.012;7.862;2023-02-15T17:59:14;48.40;;;34.97;;
12302;SDS011;6214;48.012;7.862;2023-02-15T18:01:45;55.90;;;38.50;;
12302;SDS011;6214;48.012;7.862;2023-02-15T18:04:34;48.90;;;34.97;;
12302;SDS011;6214;48.012;7.862;2023-02-15T18:07:21;48.03;;;34.15;;
12302;SDS011;6214;48.012;7.862;2023-02-15T18:10:17;50.40;;;35.67;;
12302;SDS011;6214;48.012;7.862;2023-02-15T18:13:03;54.25;;;36.67;;